KCWA/CWA METAR and TAF weather

Enter ICAO airport designator
Station Type Date Time Source
KCWA METAR 2021/09/28 15:47 UTC NOAA

KCWA 281547Z 12005KT 10SM CLR 16/08 A3008


Station Type Date Time Source
KCWA Decoded METAR 2021/09/28 15:47 UTC NOAA

Mosinee / Central Wisconsin, WI, United States (KCWA) 44-47N 089-40W
Sep 28, 2021 - 11:47 AM EDT / 2021.09.28 1547 UTC
Wind: from the ESE (120 degrees) at 6 MPH (5 KT):0
Visibility: 10 mile(s):0
Sky conditions: clear
Temperature: 60 F (16 C)
Dew Point: 46 F (8 C)
Relative Humidity: 58%
Pressure (altimeter): 30.08 in. Hg (1018 hPa)
ob: KCWA 281547Z 12005KT 10SM CLR 16/08 A3008
cycle: 16

Station Type Date Time Source
KCWA TAF 2021/09/28 12:22 UTC NOAA

TAF KCWA 281120Z 2812/2912 VRB03KT P6SM SKC
FM281500 16007KT P6SM SKC
FM290000 15003KT P6SM SKC

Example: see airport list